sensor_id;sensor_type;location;lat;lon;timestamp;P1;durP1;ratioP1;P2;durP2;ratioP2
54201;SDS011;40108;53.152;5.844;2022-12-29T00:56:08;7.90;;;5.35;;
54201;SDS011;40108;53.152;5.844;2022-12-29T00:59:17;7.78;;;6.00;;
54201;SDS011;40108;53.152;5.844;2022-12-29T01:06:10;7.45;;;6.20;;
54201;SDS011;40108;53.152;5.844;2022-12-29T01:12:29;7.75;;;5.85;;
54201;SDS011;40108;53.152;5.844;2022-12-29T01:16:07;7.40;;;5.45;;
54201;SDS011;40108;53.152;5.844;2022-12-29T01:34:10;5.72;;;4.82;;
54201;SDS011;40108;53.152;5.844;2022-12-29T01:53:00;7.85;;;5.82;;
54201;SDS011;40108;53.152;5.844;2022-12-29T01:56:09;7.22;;;6.18;;
54201;SDS011;40108;53.152;5.844;2022-12-29T02:55:06;1.63;;;1.52;;
54201;SDS011;40108;53.152;5.844;2022-12-29T02:58:22;2.63;;;1.42;;
54201;SDS011;40108;53.152;5.844;2022-12-29T11:57:14;20.63;;;3.03;;
54201;SDS011;40108;53.152;5.844;2022-12-29T14:15:32;14.90;;;2.47;;
54201;SDS011;40108;53.152;5.844;2022-12-29T14:29:57;17.92;;;2.38;;
54201;SDS011;40108;53.152;5.844;2022-12-29T17:52:25;19.35;;;2.97;;
54201;SDS011;40108;53.152;5.844;2022-12-29T18:09:17;20.77;;;3.00;;
54201;SDS011;40108;53.152;5.844;2022-12-29T19:51:21;18.05;;;3.28;;
54201;SDS011;40108;53.152;5.844;2022-12-29T20:04:31;30.15;;;3.80;;
54201;SDS011;40108;53.152;5.844;2022-12-29T20:07:03;25.95;;;3.80;;
54201;SDS011;40108;53.152;5.844;2022-12-29T20:09:37;25.00;;;3.20;;
54201;SDS011;40108;53.152;5.844;2022-12-29T20:12:17;30.10;;;3.70;;
54201;SDS011;40108;53.152;5.844;2022-12-29T20:14:48;23.05;;;3.10;;
54201;SDS011;40108;53.152;5.844;2022-12-29T20:17:26;24.90;;;2.85;;
54201;SDS011;40108;53.152;5.844;2022-12-29T20:19:55;25.45;;;3.78;;
54201;SDS011;40108;53.152;5.844;2022-12-29T20:22:26;22.10;;;3.47;;
54201;SDS011;40108;53.152;5.844;2022-12-29T20:25:23;28.50;;;3.97;;
54201;SDS011;40108;53.152;5.844;2022-12-29T20:34:26;27.83;;;3.78;;
54201;SDS011;40108;53.152;5.844;2022-12-29T20:37:21;28.80;;;4.32;;
54201;SDS011;40108;53.152;5.844;2022-12-29T20:40:32;23.05;;;3.30;;
54201;SDS011;40108;53.152;5.844;2022-12-29T20:43:14;28.42;;;3.55;;
54201;SDS011;40108;53.152;5.844;2022-12-29T20:45:43;24.92;;;3.60;;
54201;SDS011;40108;53.152;5.844;2022-12-29T20:48:12;25.00;;;3.50;;
54201;SDS011;40108;53.152;5.844;2022-12-29T20:50:46;23.80;;;3.30;;
54201;SDS011;40108;53.152;5.844;2022-12-29T20:53:15;21.70;;;3.97;;
54201;SDS011;40108;53.152;5.844;2022-12-29T20:55:45;26.67;;;3.70;;
54201;SDS011;40108;53.152;5.844;2022-12-29T20:58:17;30.90;;;3.58;;
54201;SDS011;40108;53.152;5.844;2022-12-29T21:00:45;28.05;;;3.13;;
54201;SDS011;40108;53.152;5.844;2022-12-29T21:03:23;27.00;;;3.17;;
54201;SDS011;40108;53.152;5.844;2022-12-29T21:28:13;24.83;;;3.40;;
54201;SDS011;40108;53.152;5.844;2022-12-29T21:41:13;27.08;;;4.22;;
54201;SDS011;40108;53.152;5.844;2022-12-29T21:43:42;23.52;;;3.42;;
54201;SDS011;40108;53.152;5.844;2022-12-29T21:46:29;29.58;;;3.22;;
54201;SDS011;40108;53.152;5.844;2022-12-29T21:48:59;21.00;;;3.03;;
54201;SDS011;40108;53.152;5.844;2022-12-29T21:51:28;21.45;;;3.42;;
54201;SDS011;40108;53.152;5.844;2022-12-29T21:54:12;22.55;;;3.72;;
54201;SDS011;40108;53.152;5.844;2022-12-29T21:57:06;19.40;;;4.18;;
54201;SDS011;40108;53.152;5.844;2022-12-29T21:59:32;25.75;;;4.40;;
54201;SDS011;40108;53.152;5.844;2022-12-29T22:02:23;21.75;;;4.03;;
54201;SDS011;40108;53.152;5.844;2022-12-29T22:08:00;24.85;;;3.78;;
54201;SDS011;40108;53.152;5.844;2022-12-29T22:10:47;19.83;;;3.75;;
54201;SDS011;40108;53.152;5.844;2022-12-29T22:13:35;24.77;;;3.60;;
54201;SDS011;40108;53.152;5.844;2022-12-29T22:16:09;26.65;;;3.53;;
54201;SDS011;40108;53.152;5.844;2022-12-29T22:19:11;20.58;;;4.05;;
54201;SDS011;40108;53.152;5.844;2022-12-29T22:21:42;30.15;;;5.18;;
54201;SDS011;40108;53.152;5.844;2022-12-29T22:24:10;27.75;;;4.05;;
54201;SDS011;40108;53.152;5.844;2022-12-29T22:26:39;21.13;;;4.95;;
54201;SDS011;40108;53.152;5.844;2022-12-29T22:29:07;20.02;;;2.80;;
54201;SDS011;40108;53.152;5.844;2022-12-29T22:31:33;27.58;;;3.90;;
54201;SDS011;40108;53.152;5.844;2022-12-29T22:34:02;23.65;;;3.42;;
54201;SDS011;40108;53.152;5.844;2022-12-29T22:36:29;26.38;;;3.30;;
54201;SDS011;40108;53.152;5.844;2022-12-29T22:39:06;28.50;;;3.40;;
54201;SDS011;40108;53.152;5.844;2022-12-29T22:41:35;26.48;;;4.40;;
54201;SDS011;40108;53.152;5.844;2022-12-29T22:44:01;23.92;;;4.55;;
54201;SDS011;40108;53.152;5.844;2022-12-29T22:46:29;26.38;;;3.40;;
54201;SDS011;40108;53.152;5.844;2022-12-29T22:48:55;28.52;;;4.88;;
54201;SDS011;40108;53.152;5.844;2022-12-29T22:51:21;17.52;;;3.42;;
54201;SDS011;40108;53.152;5.844;2022-12-29T22:53:50;22.98;;;2.95;;
54201;SDS011;40108;53.152;5.844;2022-12-29T22:56:16;23.80;;;3.75;;
54201;SDS011;40108;53.152;5.844;2022-12-29T22:58:43;29.88;;;3.55;;
54201;SDS011;40108;53.152;5.844;2022-12-29T23:01:11;20.15;;;3.22;;
54201;SDS011;40108;53.152;5.844;2022-12-29T23:03:46;24.42;;;3.00;;
54201;SDS011;40108;53.152;5.844;2022-12-29T23:06:15;28.27;;;3.17;;
54201;SDS011;40108;53.152;5.844;2022-12-29T23:08:42;22.85;;;3.10;;
54201;SDS011;40108;53.152;5.844;2022-12-29T23:11:12;25.25;;;2.65;;
54201;SDS011;40108;53.152;5.844;2022-12-29T23:13:38;22.88;;;3.25;;
54201;SDS011;40108;53.152;5.844;2022-12-29T23:16:05;25.98;;;3.20;;
54201;SDS011;40108;53.152;5.844;2022-12-29T23:18:31;25.98;;;3.65;;
54201;SDS011;40108;53.152;5.844;2022-12-29T23:20:57;23.33;;;3.25;;
54201;SDS011;40108;53.152;5.844;2022-12-29T23:23:28;28.08;;;3.25;;
54201;SDS011;40108;53.152;5.844;2022-12-29T23:26:12;23.05;;;3.17;;
54201;SDS011;40108;53.152;5.844;2022-12-29T23:28:38;31.75;;;3.83;;
54201;SDS011;40108;53.152;5.844;2022-12-29T23:31:04;26.73;;;3.28;;
54201;SDS011;40108;53.152;5.844;2022-12-29T23:33:32;24.42;;;3.75;;
54201;SDS011;40108;53.152;5.844;2022-12-29T23:36:01;20.17;;;2.95;;
54201;SDS011;40108;53.152;5.844;2022-12-29T23:38:28;22.98;;;3.05;;
54201;SDS011;40108;53.152;5.844;2022-12-29T23:40:53;23.85;;;3.63;;
54201;SDS011;40108;53.152;5.844;2022-12-29T23:43:19;27.75;;;2.88;;
54201;SDS011;40108;53.152;5.844;2022-12-29T23:45:51;23.00;;;3.83;;
54201;SDS011;40108;53.152;5.844;2022-12-29T23:48:17;25.40;;;2.97;;
54201;SDS011;40108;53.152;5.844;2022-12-29T23:50:43;27.35;;;3.80;;
54201;SDS011;40108;53.152;5.844;2022-12-29T23:53:11;24.20;;;3.97;;
54201;SDS011;40108;53.152;5.844;2022-12-29T23:55:37;23.65;;;2.92;;
54201;SDS011;40108;53.152;5.844;2022-12-29T23:58:06;25.45;;;3.20;;
